sensor_id;sensor_type;location;lat;lon;timestamp;temperature;humidity
15203;DHT22;7702;51.046;5.184;2023-07-28T00:02:11;18.00;99.90
15203;DHT22;7702;51.046;5.184;2023-07-28T00:04:37;18.00;99.90
15203;DHT22;7702;51.046;5.184;2023-07-28T00:07:03;18.00;99.90
15203;DHT22;7702;51.046;5.184;2023-07-28T00:09:29;18.00;99.90
15203;DHT22;7702;51.046;5.184;2023-07-28T00:11:58;18.00;99.90
15203;DHT22;7702;51.046;5.184;2023-07-28T00:14:24;18.00;99.90
15203;DHT22;7702;51.046;5.184;2023-07-28T00:16:55;18.10;99.90
15203;DHT22;7702;51.046;5.184;2023-07-28T00:19:21;18.10;99.90
15203;DHT22;7702;51.046;5.184;2023-07-28T00:21:50;18.10;99.90
15203;DHT22;7702;51.046;5.184;2023-07-28T00:24:17;18.00;99.90
15203;DHT22;7702;51.046;5.184;2023-07-28T00:26:43;18.00;99.90
15203;DHT22;7702;51.046;5.184;2023-07-28T00:29:09;18.10;99.90
15203;DHT22;7702;51.046;5.184;2023-07-28T00:31:34;18.10;99.90
15203;DHT22;7702;51.046;5.184;2023-07-28T00:34:02;18.10;99.90
15203;DHT22;7702;51.046;5.184;2023-07-28T00:36:28;18.10;99.90
15203;DHT22;7702;51.046;5.184;2023-07-28T00:38:54;18.10;99.90
15203;DHT22;7702;51.046;5.184;2023-07-28T00:41:19;18.10;99.90
15203;DHT22;7702;51.046;5.184;2023-07-28T00:43:45;18.10;99.90
15203;DHT22;7702;51.046;5.184;2023-07-28T00:46:11;18.10;99.90
15203;DHT22;7702;51.046;5.184;2023-07-28T00:48:37;18.10;99.90
15203;DHT22;7702;51.046;5.184;2023-07-28T00:51:04;18.10;99.90
15203;DHT22;7702;51.046;5.184;2023-07-28T00:53:30;18.10;99.90
15203;DHT22;7702;51.046;5.184;2023-07-28T00:55:57;18.10;99.90
15203;DHT22;7702;51.046;5.184;2023-07-28T00:58:23;18.20;99.90
15203;DHT22;7702;51.046;5.184;2023-07-28T01:00:48;18.10;99.90
15203;DHT22;7702;51.046;5.184;2023-07-28T01:03:15;18.10;99.90
15203;DHT22;7702;51.046;5.184;2023-07-28T01:05:55;18.10;99.90
15203;DHT22;7702;51.046;5.184;2023-07-28T01:08:34;18.10;99.90
15203;DHT22;7702;51.046;5.184;2023-07-28T01:11:02;18.10;99.90
15203;DHT22;7702;51.046;5.184;2023-07-28T01:13:28;18.10;99.90
15203;DHT22;7702;51.046;5.184;2023-07-28T01:15:54;18.00;99.90
15203;DHT22;7702;51.046;5.184;2023-07-28T01:18:20;18.00;99.90
15203;DHT22;7702;51.046;5.184;2023-07-28T01:20:46;18.00;99.90
15203;DHT22;7702;51.046;5.184;2023-07-28T01:23:19;18.00;99.90
15203;DHT22;7702;51.046;5.184;2023-07-28T01:28:20;18.00;99.90
15203;DHT22;7702;51.046;5.184;2023-07-28T01:30:46;18.00;99.90
15203;DHT22;7702;51.046;5.184;2023-07-28T01:33:12;18.00;99.90
15203;DHT22;7702;51.046;5.184;2023-07-28T01:35:39;18.00;99.90
15203;DHT22;7702;51.046;5.184;2023-07-28T01:38:05;18.00;99.90
15203;DHT22;7702;51.046;5.184;2023-07-28T01:40:31;18.10;99.90
15203;DHT22;7702;51.046;5.184;2023-07-28T01:42:57;18.10;99.90
15203;DHT22;7702;51.046;5.184;2023-07-28T01:45:22;18.10;99.90
15203;DHT22;7702;51.046;5.184;2023-07-28T01:47:48;18.00;99.90
15203;DHT22;7702;51.046;5.184;2023-07-28T01:50:14;18.00;99.90
15203;DHT22;7702;51.046;5.184;2023-07-28T01:52:39;18.00;99.90
15203;DHT22;7702;51.046;5.184;2023-07-28T01:55:05;18.00;99.90
15203;DHT22;7702;51.046;5.184;2023-07-28T01:57:38;18.00;99.90
15203;DHT22;7702;51.046;5.184;2023-07-28T02:00:04;18.00;99.90
15203;DHT22;7702;51.046;5.184;2023-07-28T02:02:30;18.00;99.90
15203;DHT22;7702;51.046;5.184;2023-07-28T02:04:56;18.00;99.90
15203;DHT22;7702;51.046;5.184;2023-07-28T02:07:21;18.00;99.90
15203;DHT22;7702;51.046;5.184;2023-07-28T02:09:47;18.00;99.90
15203;DHT22;7702;51.046;5.184;2023-07-28T02:12:13;18.00;99.90
15203;DHT22;7702;51.046;5.184;2023-07-28T02:14:39;18.00;99.90
15203;DHT22;7702;51.046;5.184;2023-07-28T02:17:05;18.00;99.90
15203;DHT22;7702;51.046;5.184;2023-07-28T02:19:31;18.00;99.90
15203;DHT22;7702;51.046;5.184;2023-07-28T02:21:56;18.00;99.90
15203;DHT22;7702;51.046;5.184;2023-07-28T02:24:22;18.00;99.90
15203;DHT22;7702;51.046;5.184;2023-07-28T02:26:48;18.00;99.90
15203;DHT22;7702;51.046;5.184;2023-07-28T02:29:13;18.00;99.90
15203;DHT22;7702;51.046;5.184;2023-07-28T02:31:39;18.00;99.90
15203;DHT22;7702;51.046;5.184;2023-07-28T02:34:05;18.00;99.90
15203;DHT22;7702;51.046;5.184;2023-07-28T02:36:31;18.00;99.90
15203;DHT22;7702;51.046;5.184;2023-07-28T02:38:57;18.00;99.90
15203;DHT22;7702;51.046;5.184;2023-07-28T02:41:22;18.00;99.90
15203;DHT22;7702;51.046;5.184;2023-07-28T02:43:48;18.00;99.90
15203;DHT22;7702;51.046;5.184;2023-07-28T02:46:13;18.10;99.90
15203;DHT22;7702;51.046;5.184;2023-07-28T02:48:39;18.00;99.90
15203;DHT22;7702;51.046;5.184;2023-07-28T02:51:05;18.10;99.90
15203;DHT22;7702;51.046;5.184;2023-07-28T02:53:30;18.10;99.90
15203;DHT22;7702;51.046;5.184;2023-07-28T02:55:57;18.10;99.90
15203;DHT22;7702;51.046;5.184;2023-07-28T02:58:23;18.10;99.90
15203;DHT22;7702;51.046;5.184;2023-07-28T03:00:51;18.10;99.90
15203;DHT22;7702;51.046;5.184;2023-07-28T03:03:17;18.10;99.90
15203;DHT22;7702;51.046;5.184;2023-07-28T03:05:42;18.10;99.90
15203;DHT22;7702;51.046;5.184;2023-07-28T03:08:08;18.10;99.90
15203;DHT22;7702;51.046;5.184;2023-07-28T03:10:34;18.00;99.90
15203;DHT22;7702;51.046;5.184;2023-07-28T03:12:59;18.10;99.90
15203;DHT22;7702;51.046;5.184;2023-07-28T03:15:25;18.10;99.90
15203;DHT22;7702;51.046;5.184;2023-07-28T03:17:51;18.10;99.90
15203;DHT22;7702;51.046;5.184;2023-07-28T03:20:17;18.00;99.90
15203;DHT22;7702;51.046;5.184;2023-07-28T03:22:42;18.10;99.90
15203;DHT22;7702;51.046;5.184;2023-07-28T03:25:09;18.10;99.90
15203;DHT22;7702;51.046;5.184;2023-07-28T03:27:35;18.10;99.90
15203;DHT22;7702;51.046;5.184;2023-07-28T03:30:01;18.10;99.90
15203;DHT22;7702;51.046;5.184;2023-07-28T03:32:27;18.10;99.90
15203;DHT22;7702;51.046;5.184;2023-07-28T03:34:53;18.10;99.90
15203;DHT22;7702;51.046;5.184;2023-07-28T03:37:19;18.10;99.90
15203;DHT22;7702;51.046;5.184;2023-07-28T03:39:45;18.10;99.90
15203;DHT22;7702;51.046;5.184;2023-07-28T03:42:10;18.10;99.90
15203;DHT22;7702;51.046;5.184;2023-07-28T03:44:36;18.10;99.90
15203;DHT22;7702;51.046;5.184;2023-07-28T03:47:07;18.10;99.90
15203;DHT22;7702;51.046;5.184;2023-07-28T03:49:33;18.10;99.90
15203;DHT22;7702;51.046;5.184;2023-07-28T03:51:58;18.10;99.90
15203;DHT22;7702;51.046;5.184;2023-07-28T03:54:24;18.10;99.90
15203;DHT22;7702;51.046;5.184;2023-07-28T03:56:50;18.10;99.90
15203;DHT22;7702;51.046;5.184;2023-07-28T03:59:15;18.10;99.90
15203;DHT22;7702;51.046;5.184;2023-07-28T04:01:41;18.10;99.90
15203;DHT22;7702;51.046;5.184;2023-07-28T04:04:07;18.10;99.90
15203;DHT22;7702;51.046;5.184;2023-07-28T04:06:45;18.10;99.90
15203;DHT22;7702;51.046;5.184;2023-07-28T04:09:12;18.10;99.90
15203;DHT22;7702;51.046;5.184;2023-07-28T04:11:38;18.10;99.90
15203;DHT22;7702;51.046;5.184;2023-07-28T04:14:04;18.10;99.90
15203;DHT22;7702;51.046;5.184;2023-07-28T04:16:30;18.10;99.90
15203;DHT22;7702;51.046;5.184;2023-07-28T04:18:56;18.20;99.90
15203;DHT22;7702;51.046;5.184;2023-07-28T04:21:22;18.20;99.90
15203;DHT22;7702;51.046;5.184;2023-07-28T04:23:48;18.20;99.90
15203;DHT22;7702;51.046;5.184;2023-07-28T04:26:13;18.20;99.90
15203;DHT22;7702;51.046;5.184;2023-07-28T04:28:39;18.10;99.90
15203;DHT22;7702;51.046;5.184;2023-07-28T04:31:05;18.10;99.90
15203;DHT22;7702;51.046;5.184;2023-07-28T04:33:31;18.10;99.90
15203;DHT22;7702;51.046;5.184;2023-07-28T04:35:56;18.20;99.90
15203;DHT22;7702;51.046;5.184;2023-07-28T04:38:22;18.20;99.90
15203;DHT22;7702;51.046;5.184;2023-07-28T04:40:48;18.10;99.90
15203;DHT22;7702;51.046;5.184;2023-07-28T04:43:13;18.20;99.90
15203;DHT22;7702;51.046;5.184;2023-07-28T04:45:39;18.10;99.90
15203;DHT22;7702;51.046;5.184;2023-07-28T04:48:05;18.10;99.90
15203;DHT22;7702;51.046;5.184;2023-07-28T04:50:30;18.10;99.90
15203;DHT22;7702;51.046;5.184;2023-07-28T04:52:59;18.20;99.90
15203;DHT22;7702;51.046;5.184;2023-07-28T04:55:25;18.20;99.90
15203;DHT22;7702;51.046;5.184;2023-07-28T04:57:52;18.20;99.90
15203;DHT22;7702;51.046;5.184;2023-07-28T05:00:18;18.20;99.90
15203;DHT22;7702;51.046;5.184;2023-07-28T05:02:44;18.20;99.90
15203;DHT22;7702;51.046;5.184;2023-07-28T05:05:10;18.20;99.90
15203;DHT22;7702;51.046;5.184;2023-07-28T05:07:36;18.20;99.90
15203;DHT22;7702;51.046;5.184;2023-07-28T05:10:01;18.30;99.90
15203;DHT22;7702;51.046;5.184;2023-07-28T05:12:27;18.30;99.90
15203;DHT22;7702;51.046;5.184;2023-07-28T05:14:53;18.30;99.90
15203;DHT22;7702;51.046;5.184;2023-07-28T05:17:19;18.30;99.90
15203;DHT22;7702;51.046;5.184;2023-07-28T05:19:45;18.30;99.90
15203;DHT22;7702;51.046;5.184;2023-07-28T05:22:10;18.40;99.90
15203;DHT22;7702;51.046;5.184;2023-07-28T05:24:36;18.40;99.90
15203;DHT22;7702;51.046;5.184;2023-07-28T05:27:02;18.40;99.90
15203;DHT22;7702;51.046;5.184;2023-07-28T05:29:27;18.40;99.90
15203;DHT22;7702;51.046;5.184;2023-07-28T05:31:53;18.40;99.90
15203;DHT22;7702;51.046;5.184;2023-07-28T05:34:19;18.40;99.90
15203;DHT22;7702;51.046;5.184;2023-07-28T05:36:45;18.40;99.90
15203;DHT22;7702;51.046;5.184;2023-07-28T05:39:11;18.50;99.90
15203;DHT22;7702;51.046;5.184;2023-07-28T05:41:37;18.40;99.90
15203;DHT22;7702;51.046;5.184;2023-07-28T05:44:03;18.40;99.90
15203;DHT22;7702;51.046;5.184;2023-07-28T05:46:29;18.50;99.90
15203;DHT22;7702;51.046;5.184;2023-07-28T05:48:55;18.50;99.90
15203;DHT22;7702;51.046;5.184;2023-07-28T05:51:22;18.60;99.90
15203;DHT22;7702;51.046;5.184;2023-07-28T05:53:48;18.60;99.90
15203;DHT22;7702;51.046;5.184;2023-07-28T05:56:14;18.60;99.90
15203;DHT22;7702;51.046;5.184;2023-07-28T05:58:40;18.70;99.90
15203;DHT22;7702;51.046;5.184;2023-07-28T06:01:06;18.70;99.90
15203;DHT22;7702;51.046;5.184;2023-07-28T06:03:31;18.70;99.90
15203;DHT22;7702;51.046;5.184;2023-07-28T06:05:57;18.70;99.90
15203;DHT22;7702;51.046;5.184;2023-07-28T06:08:23;18.70;99.90
15203;DHT22;7702;51.046;5.184;2023-07-28T06:10:49;18.80;99.90
15203;DHT22;7702;51.046;5.184;2023-07-28T06:13:14;18.80;99.90
15203;DHT22;7702;51.046;5.184;2023-07-28T06:15:41;18.80;99.90
15203;DHT22;7702;51.046;5.184;2023-07-28T06:18:07;18.80;99.90
15203;DHT22;7702;51.046;5.184;2023-07-28T06:20:32;18.80;99.90
15203;DHT22;7702;51.046;5.184;2023-07-28T06:23:00;18.90;99.90
15203;DHT22;7702;51.046;5.184;2023-07-28T06:25:25;19.00;99.90
15203;DHT22;7702;51.046;5.184;2023-07-28T06:27:51;18.90;99.90
15203;DHT22;7702;51.046;5.184;2023-07-28T06:30:17;19.00;99.90
15203;DHT22;7702;51.046;5.184;2023-07-28T06:32:42;18.90;99.90
15203;DHT22;7702;51.046;5.184;2023-07-28T06:35:08;19.00;99.90
15203;DHT22;7702;51.046;5.184;2023-07-28T06:37:38;18.90;99.90
15203;DHT22;7702;51.046;5.184;2023-07-28T06:40:07;19.10;99.90
15203;DHT22;7702;51.046;5.184;2023-07-28T06:42:35;19.20;99.90
15203;DHT22;7702;51.046;5.184;2023-07-28T06:45:05;19.20;99.90
15203;DHT22;7702;51.046;5.184;2023-07-28T06:47:31;19.20;99.90
15203;DHT22;7702;51.046;5.184;2023-07-28T06:49:56;19.30;99.90
15203;DHT22;7702;51.046;5.184;2023-07-28T06:52:22;19.30;99.90
15203;DHT22;7702;51.046;5.184;2023-07-28T06:54:48;19.30;99.90
15203;DHT22;7702;51.046;5.184;2023-07-28T06:57:15;19.50;99.90
15203;DHT22;7702;51.046;5.184;2023-07-28T06:59:41;19.50;99.90
15203;DHT22;7702;51.046;5.184;2023-07-28T07:02:07;19.60;99.90
15203;DHT22;7702;51.046;5.184;2023-07-28T07:04:34;19.60;99.90
15203;DHT22;7702;51.046;5.184;2023-07-28T07:07:00;19.70;99.90
15203;DHT22;7702;51.046;5.184;2023-07-28T07:09:25;19.90;99.90
15203;DHT22;7702;51.046;5.184;2023-07-28T07:11:51;19.90;99.90
15203;DHT22;7702;51.046;5.184;2023-07-28T07:14:17;20.10;99.90
15203;DHT22;7702;51.046;5.184;2023-07-28T07:16:42;20.10;99.90
15203;DHT22;7702;51.046;5.184;2023-07-28T07:19:08;20.10;99.90
15203;DHT22;7702;51.046;5.184;2023-07-28T07:21:34;20.10;99.90
15203;DHT22;7702;51.046;5.184;2023-07-28T07:24:00;20.10;99.90
15203;DHT22;7702;51.046;5.184;2023-07-28T07:26:27;20.20;99.90
15203;DHT22;7702;51.046;5.184;2023-07-28T07:28:53;20.30;99.90
15203;DHT22;7702;51.046;5.184;2023-07-28T07:31:19;20.40;99.90
15203;DHT22;7702;51.046;5.184;2023-07-28T07:33:45;20.40;99.90
15203;DHT22;7702;51.046;5.184;2023-07-28T07:36:18;20.40;99.90
15203;DHT22;7702;51.046;5.184;2023-07-28T07:38:45;20.60;99.90
15203;DHT22;7702;51.046;5.184;2023-07-28T07:41:15;20.70;99.90
15203;DHT22;7702;51.046;5.184;2023-07-28T07:43:51;20.50;99.90
15203;DHT22;7702;51.046;5.184;2023-07-28T07:46:18;20.50;99.90
15203;DHT22;7702;51.046;5.184;2023-07-28T07:48:46;20.40;99.90
15203;DHT22;7702;51.046;5.184;2023-07-28T07:51:12;20.20;99.90
15203;DHT22;7702;51.046;5.184;2023-07-28T07:53:38;20.20;99.90
15203;DHT22;7702;51.046;5.184;2023-07-28T07:56:04;20.30;99.90
15203;DHT22;7702;51.046;5.184;2023-07-28T07:58:30;20.40;99.90
15203;DHT22;7702;51.046;5.184;2023-07-28T08:00:56;20.20;99.90
15203;DHT22;7702;51.046;5.184;2023-07-28T08:03:22;20.30;99.90
15203;DHT22;7702;51.046;5.184;2023-07-28T08:05:50;20.20;99.90
15203;DHT22;7702;51.046;5.184;2023-07-28T08:08:15;20.20;99.90
15203;DHT22;7702;51.046;5.184;2023-07-28T08:10:43;20.30;99.90
15203;DHT22;7702;51.046;5.184;2023-07-28T08:13:09;20.20;99.90
15203;DHT22;7702;51.046;5.184;2023-07-28T08:15:35;20.40;99.90
15203;DHT22;7702;51.046;5.184;2023-07-28T08:18:00;20.70;99.90
15203;DHT22;7702;51.046;5.184;2023-07-28T08:20:26;20.90;99.90
15203;DHT22;7702;51.046;5.184;2023-07-28T08:22:52;21.20;99.90
15203;DHT22;7702;51.046;5.184;2023-07-28T08:25:18;21.40;99.90
15203;DHT22;7702;51.046;5.184;2023-07-28T08:27:44;21.40;99.90
15203;DHT22;7702;51.046;5.184;2023-07-28T08:30:10;21.30;99.90
15203;DHT22;7702;51.046;5.184;2023-07-28T08:32:36;21.50;99.90
15203;DHT22;7702;51.046;5.184;2023-07-28T08:35:02;21.40;99.90
15203;DHT22;7702;51.046;5.184;2023-07-28T08:37:29;21.40;99.90
15203;DHT22;7702;51.046;5.184;2023-07-28T08:39:54;21.70;99.90
15203;DHT22;7702;51.046;5.184;2023-07-28T08:42:21;21.80;99.90
15203;DHT22;7702;51.046;5.184;2023-07-28T08:44:50;21.80;99.90
15203;DHT22;7702;51.046;5.184;2023-07-28T08:47:18;21.60;99.90
15203;DHT22;7702;51.046;5.184;2023-07-28T08:49:44;21.40;99.90
15203;DHT22;7702;51.046;5.184;2023-07-28T08:52:10;21.30;99.90
15203;DHT22;7702;51.046;5.184;2023-07-28T08:54:36;21.00;99.90
15203;DHT22;7702;51.046;5.184;2023-07-28T08:57:02;20.90;99.90
15203;DHT22;7702;51.046;5.184;2023-07-28T08:59:29;21.00;99.90
15203;DHT22;7702;51.046;5.184;2023-07-28T09:01:56;21.10;99.90
15203;DHT22;7702;51.046;5.184;2023-07-28T09:04:25;21.20;99.90
15203;DHT22;7702;51.046;5.184;2023-07-28T09:06:51;21.30;99.90
15203;DHT22;7702;51.046;5.184;2023-07-28T09:09:19;21.50;99.90
15203;DHT22;7702;51.046;5.184;2023-07-28T09:11:50;21.60;99.90
15203;DHT22;7702;51.046;5.184;2023-07-28T09:14:20;21.80;99.90
15203;DHT22;7702;51.046;5.184;2023-07-28T09:16:46;22.10;99.90
15203;DHT22;7702;51.046;5.184;2023-07-28T09:19:12;22.30;99.90
15203;DHT22;7702;51.046;5.184;2023-07-28T09:21:40;22.40;99.90
15203;DHT22;7702;51.046;5.184;2023-07-28T09:24:09;22.30;99.90
15203;DHT22;7702;51.046;5.184;2023-07-28T09:26:38;22.50;99.90
15203;DHT22;7702;51.046;5.184;2023-07-28T09:29:18;22.70;99.90
15203;DHT22;7702;51.046;5.184;2023-07-28T09:31:46;22.80;99.90
15203;DHT22;7702;51.046;5.184;2023-07-28T09:34:12;22.80;99.90
15203;DHT22;7702;51.046;5.184;2023-07-28T09:36:39;22.80;99.90
15203;DHT22;7702;51.046;5.184;2023-07-28T09:39:06;22.90;99.90
15203;DHT22;7702;51.046;5.184;2023-07-28T09:41:38;23.00;99.90
15203;DHT22;7702;51.046;5.184;2023-07-28T09:44:06;23.10;99.90
15203;DHT22;7702;51.046;5.184;2023-07-28T09:46:35;23.30;99.90
15203;DHT22;7702;51.046;5.184;2023-07-28T09:49:05;23.20;99.90
15203;DHT22;7702;51.046;5.184;2023-07-28T09:51:34;23.20;99.90
15203;DHT22;7702;51.046;5.184;2023-07-28T09:54:11;23.20;99.90
15203;DHT22;7702;51.046;5.184;2023-07-28T09:56:38;22.80;99.90
15203;DHT22;7702;51.046;5.184;2023-07-28T09:59:13;22.50;99.90
15203;DHT22;7702;51.046;5.184;2023-07-28T10:01:44;22.40;99.90
15203;DHT22;7702;51.046;5.184;2023-07-28T10:04:10;22.60;99.90
15203;DHT22;7702;51.046;5.184;2023-07-28T10:06:36;23.00;99.90
15203;DHT22;7702;51.046;5.184;2023-07-28T10:09:04;23.50;99.90
15203;DHT22;7702;51.046;5.184;2023-07-28T10:11:31;23.50;99.90
15203;DHT22;7702;51.046;5.184;2023-07-28T10:13:57;23.40;99.90
15203;DHT22;7702;51.046;5.184;2023-07-28T10:16:31;23.50;99.90
15203;DHT22;7702;51.046;5.184;2023-07-28T10:19:03;23.30;99.90
15203;DHT22;7702;51.046;5.184;2023-07-28T10:21:28;23.30;99.90
15203;DHT22;7702;51.046;5.184;2023-07-28T10:23:56;23.80;99.90
15203;DHT22;7702;51.046;5.184;2023-07-28T10:26:41;23.90;99.90
15203;DHT22;7702;51.046;5.184;2023-07-28T10:29:14;23.80;99.90
15203;DHT22;7702;51.046;5.184;2023-07-28T10:31:53;23.70;99.90
15203;DHT22;7702;51.046;5.184;2023-07-28T10:34:21;23.00;99.90
15203;DHT22;7702;51.046;5.184;2023-07-28T10:36:49;22.80;99.90
15203;DHT22;7702;51.046;5.184;2023-07-28T10:39:21;22.60;99.90
15203;DHT22;7702;51.046;5.184;2023-07-28T10:42:09;22.40;99.90
15203;DHT22;7702;51.046;5.184;2023-07-28T10:44:35;22.20;99.90
15203;DHT22;7702;51.046;5.184;2023-07-28T10:47:01;22.20;99.90
15203;DHT22;7702;51.046;5.184;2023-07-28T10:49:28;22.40;99.90
15203;DHT22;7702;51.046;5.184;2023-07-28T10:51:54;22.80;99.90
15203;DHT22;7702;51.046;5.184;2023-07-28T10:54:20;22.90;99.90
15203;DHT22;7702;51.046;5.184;2023-07-28T10:56:48;23.10;99.90
15203;DHT22;7702;51.046;5.184;2023-07-28T10:59:14;23.50;99.90
15203;DHT22;7702;51.046;5.184;2023-07-28T11:01:41;23.90;99.90
15203;DHT22;7702;51.046;5.184;2023-07-28T11:04:16;23.90;99.90
15203;DHT22;7702;51.046;5.184;2023-07-28T11:06:44;23.80;99.90
15203;DHT22;7702;51.046;5.184;2023-07-28T11:09:11;23.50;99.90
15203;DHT22;7702;51.046;5.184;2023-07-28T11:11:38;23.30;99.90
15203;DHT22;7702;51.046;5.184;2023-07-28T11:14:08;23.00;99.90
15203;DHT22;7702;51.046;5.184;2023-07-28T11:16:36;22.90;99.90
15203;DHT22;7702;51.046;5.184;2023-07-28T11:19:03;23.00;99.90
15203;DHT22;7702;51.046;5.184;2023-07-28T11:21:38;23.10;99.90
15203;DHT22;7702;51.046;5.184;2023-07-28T11:24:05;23.00;99.90
15203;DHT22;7702;51.046;5.184;2023-07-28T11:26:32;23.10;99.90
15203;DHT22;7702;51.046;5.184;2023-07-28T11:28:59;23.00;99.90
15203;DHT22;7702;51.046;5.184;2023-07-28T11:31:25;23.30;99.90
15203;DHT22;7702;51.046;5.184;2023-07-28T11:33:52;23.60;99.90
15203;DHT22;7702;51.046;5.184;2023-07-28T11:36:26;23.90;99.90
15203;DHT22;7702;51.046;5.184;2023-07-28T11:38:53;23.80;99.90
15203;DHT22;7702;51.046;5.184;2023-07-28T11:41:20;24.00;99.90
15203;DHT22;7702;51.046;5.184;2023-07-28T11:43:48;24.30;99.90
15203;DHT22;7702;51.046;5.184;2023-07-28T11:46:36;24.40;99.90
15203;DHT22;7702;51.046;5.184;2023-07-28T11:51:46;24.50;99.90
15203;DHT22;7702;51.046;5.184;2023-07-28T11:54:14;24.40;99.90
15203;DHT22;7702;51.046;5.184;2023-07-28T11:56:42;24.50;99.90
15203;DHT22;7702;51.046;5.184;2023-07-28T11:59:09;24.70;99.90
15203;DHT22;7702;51.046;5.184;2023-07-28T12:01:35;24.50;99.90
15203;DHT22;7702;51.046;5.184;2023-07-28T12:04:19;24.20;99.90
15203;DHT22;7702;51.046;5.184;2023-07-28T12:07:11;23.80;99.90
15203;DHT22;7702;51.046;5.184;2023-07-28T12:12:13;23.60;99.90
15203;DHT22;7702;51.046;5.184;2023-07-28T12:14:40;23.90;99.90
15203;DHT22;7702;51.046;5.184;2023-07-28T12:17:16;24.00;99.90
15203;DHT22;7702;51.046;5.184;2023-07-28T12:22:24;24.70;99.90
15203;DHT22;7702;51.046;5.184;2023-07-28T12:24:49;24.40;99.90
15203;DHT22;7702;51.046;5.184;2023-07-28T12:27:15;23.90;99.90
15203;DHT22;7702;51.046;5.184;2023-07-28T12:29:41;23.80;99.90
15203;DHT22;7702;51.046;5.184;2023-07-28T12:32:07;23.70;99.90
15203;DHT22;7702;51.046;5.184;2023-07-28T12:34:34;23.60;99.90
15203;DHT22;7702;51.046;5.184;2023-07-28T12:36:59;23.70;99.90
15203;DHT22;7702;51.046;5.184;2023-07-28T12:39:25;23.80;99.90
15203;DHT22;7702;51.046;5.184;2023-07-28T12:41:51;23.70;99.90
15203;DHT22;7702;51.046;5.184;2023-07-28T12:44:20;23.50;99.90
15203;DHT22;7702;51.046;5.184;2023-07-28T12:46:46;23.40;99.90
15203;DHT22;7702;51.046;5.184;2023-07-28T12:49:11;23.30;99.90
15203;DHT22;7702;51.046;5.184;2023-07-28T12:51:37;23.30;99.90
15203;DHT22;7702;51.046;5.184;2023-07-28T12:54:03;23.70;99.90
15203;DHT22;7702;51.046;5.184;2023-07-28T12:56:29;24.00;99.90
15203;DHT22;7702;51.046;5.184;2023-07-28T12:58:55;24.70;99.90
15203;DHT22;7702;51.046;5.184;2023-07-28T13:01:21;24.80;99.90
15203;DHT22;7702;51.046;5.184;2023-07-28T13:03:46;24.70;99.90
15203;DHT22;7702;51.046;5.184;2023-07-28T13:06:12;24.50;99.90
15203;DHT22;7702;51.046;5.184;2023-07-28T13:08:38;24.20;99.90
15203;DHT22;7702;51.046;5.184;2023-07-28T13:11:04;23.90;99.90
15203;DHT22;7702;51.046;5.184;2023-07-28T13:13:30;23.70;99.90
15203;DHT22;7702;51.046;5.184;2023-07-28T13:15:56;23.70;99.90
15203;DHT22;7702;51.046;5.184;2023-07-28T13:18:23;23.80;99.90
15203;DHT22;7702;51.046;5.184;2023-07-28T13:20:49;23.80;99.90
15203;DHT22;7702;51.046;5.184;2023-07-28T13:23:15;23.90;99.90
15203;DHT22;7702;51.046;5.184;2023-07-28T13:25:41;24.20;99.90
15203;DHT22;7702;51.046;5.184;2023-07-28T13:28:06;24.30;99.90
15203;DHT22;7702;51.046;5.184;2023-07-28T13:30:32;24.20;99.90
15203;DHT22;7702;51.046;5.184;2023-07-28T13:32:58;24.10;99.90
15203;DHT22;7702;51.046;5.184;2023-07-28T13:35:24;24.50;99.90
15203;DHT22;7702;51.046;5.184;2023-07-28T13:37:50;25.10;99.90
15203;DHT22;7702;51.046;5.184;2023-07-28T13:40:15;25.10;99.90
15203;DHT22;7702;51.046;5.184;2023-07-28T13:42:41;25.50;99.90
15203;DHT22;7702;51.046;5.184;2023-07-28T13:45:08;25.80;99.90
15203;DHT22;7702;51.046;5.184;2023-07-28T13:47:34;26.00;99.90
15203;DHT22;7702;51.046;5.184;2023-07-28T13:50:00;26.20;99.90
15203;DHT22;7702;51.046;5.184;2023-07-28T13:52:26;26.00;99.90
15203;DHT22;7702;51.046;5.184;2023-07-28T13:54:52;25.80;99.90
15203;DHT22;7702;51.046;5.184;2023-07-28T13:57:18;25.60;99.90
15203;DHT22;7702;51.046;5.184;2023-07-28T13:59:43;25.60;99.90
15203;DHT22;7702;51.046;5.184;2023-07-28T14:02:09;25.40;99.90
15203;DHT22;7702;51.046;5.184;2023-07-28T14:04:35;25.20;99.90
15203;DHT22;7702;51.046;5.184;2023-07-28T14:07:00;25.50;99.90
15203;DHT22;7702;51.046;5.184;2023-07-28T14:09:26;26.20;99.90
15203;DHT22;7702;51.046;5.184;2023-07-28T14:11:52;26.70;99.90
15203;DHT22;7702;51.046;5.184;2023-07-28T14:14:17;26.80;99.90
15203;DHT22;7702;51.046;5.184;2023-07-28T14:16:44;27.20;99.90
15203;DHT22;7702;51.046;5.184;2023-07-28T14:19:10;27.40;99.90
15203;DHT22;7702;51.046;5.184;2023-07-28T14:21:35;27.60;99.90
15203;DHT22;7702;51.046;5.184;2023-07-28T14:24:04;28.00;99.90
15203;DHT22;7702;51.046;5.184;2023-07-28T14:26:30;27.90;99.90
15203;DHT22;7702;51.046;5.184;2023-07-28T14:28:56;27.10;99.90
15203;DHT22;7702;51.046;5.184;2023-07-28T14:31:22;26.30;99.90
15203;DHT22;7702;51.046;5.184;2023-07-28T14:33:48;25.90;99.90
15203;DHT22;7702;51.046;5.184;2023-07-28T14:36:13;25.80;99.90
15203;DHT22;7702;51.046;5.184;2023-07-28T14:38:39;25.70;99.90
15203;DHT22;7702;51.046;5.184;2023-07-28T14:41:04;25.70;99.90
15203;DHT22;7702;51.046;5.184;2023-07-28T14:43:30;25.60;99.90
15203;DHT22;7702;51.046;5.184;2023-07-28T14:45:56;25.40;99.90
15203;DHT22;7702;51.046;5.184;2023-07-28T14:48:22;25.60;99.90
15203;DHT22;7702;51.046;5.184;2023-07-28T14:50:47;26.00;99.90
15203;DHT22;7702;51.046;5.184;2023-07-28T14:55:59;26.60;99.90
15203;DHT22;7702;51.046;5.184;2023-07-28T14:58:25;26.60;99.90
15203;DHT22;7702;51.046;5.184;2023-07-28T15:00:51;26.80;99.90
15203;DHT22;7702;51.046;5.184;2023-07-28T15:03:16;27.10;99.90
15203;DHT22;7702;51.046;5.184;2023-07-28T15:05:43;27.40;99.90
15203;DHT22;7702;51.046;5.184;2023-07-28T15:08:08;27.10;99.90
15203;DHT22;7702;51.046;5.184;2023-07-28T15:10:34;27.00;99.90
15203;DHT22;7702;51.046;5.184;2023-07-28T15:13:00;27.20;99.90
15203;DHT22;7702;51.046;5.184;2023-07-28T15:15:25;28.10;99.90
15203;DHT22;7702;51.046;5.184;2023-07-28T15:17:51;28.70;99.90
15203;DHT22;7702;51.046;5.184;2023-07-28T15:20:16;29.00;99.90
15203;DHT22;7702;51.046;5.184;2023-07-28T15:22:46;28.80;99.90
15203;DHT22;7702;51.046;5.184;2023-07-28T15:25:12;29.40;99.90
15203;DHT22;7702;51.046;5.184;2023-07-28T15:27:41;30.00;99.90
15203;DHT22;7702;51.046;5.184;2023-07-28T15:30:09;30.00;99.90
15203;DHT22;7702;51.046;5.184;2023-07-28T15:32:35;29.40;99.90
15203;DHT22;7702;51.046;5.184;2023-07-28T15:35:02;29.10;99.90
15203;DHT22;7702;51.046;5.184;2023-07-28T15:37:29;28.00;99.90
15203;DHT22;7702;51.046;5.184;2023-07-28T15:39:55;27.40;99.90
15203;DHT22;7702;51.046;5.184;2023-07-28T15:42:21;26.60;99.90
15203;DHT22;7702;51.046;5.184;2023-07-28T15:44:47;26.80;99.90
15203;DHT22;7702;51.046;5.184;2023-07-28T15:47:12;26.70;99.90
15203;DHT22;7702;51.046;5.184;2023-07-28T15:49:38;26.90;99.90
15203;DHT22;7702;51.046;5.184;2023-07-28T15:52:04;27.80;99.90
15203;DHT22;7702;51.046;5.184;2023-07-28T15:54:30;28.80;99.90
15203;DHT22;7702;51.046;5.184;2023-07-28T15:56:55;29.00;99.90